sensor_id;sensor_type;location;lat;lon;timestamp;temperature;humidity
7684;DHT22;3884;48.616;12.872;2024-01-16T00:01:14;-1.00;1.00
7684;DHT22;3884;48.616;12.872;2024-01-16T00:03:42;-0.90;1.00
7684;DHT22;3884;48.616;12.872;2024-01-16T00:06:11;-0.90;1.00
7684;DHT22;3884;48.616;12.872;2024-01-16T00:08:38;-0.90;1.00
7684;DHT22;3884;48.616;12.872;2024-01-16T00:11:05;-1.00;1.00
7684;DHT22;3884;48.616;12.872;2024-01-16T00:13:32;-0.90;1.00
7684;DHT22;3884;48.616;12.872;2024-01-16T00:15:58;-1.00;1.00
7684;DHT22;3884;48.616;12.872;2024-01-16T00:18:25;-0.90;1.00
7684;DHT22;3884;48.616;12.872;2024-01-16T00:20:52;-0.90;1.00
7684;DHT22;3884;48.616;12.872;2024-01-16T00:23:20;-0.90;1.00
7684;DHT22;3884;48.616;12.872;2024-01-16T00:25:47;-0.90;1.00
7684;DHT22;3884;48.616;12.872;2024-01-16T00:28:14;-1.00;1.00
7684;DHT22;3884;48.616;12.872;2024-01-16T00:30:40;-1.00;1.00
7684;DHT22;3884;48.616;12.872;2024-01-16T00:33:07;-0.90;1.00
7684;DHT22;3884;48.616;12.872;2024-01-16T00:35:38;-1.00;1.00
7684;DHT22;3884;48.616;12.872;2024-01-16T00:38:04;-1.00;1.00
7684;DHT22;3884;48.616;12.872;2024-01-16T00:40:33;-1.00;1.00
7684;DHT22;3884;48.616;12.872;2024-01-16T00:43:00;-1.00;1.00
7684;DHT22;3884;48.616;12.872;2024-01-16T00:45:27;-1.00;1.00
7684;DHT22;3884;48.616;12.872;2024-01-16T00:47:54;-1.00;1.00
7684;DHT22;3884;48.616;12.872;2024-01-16T00:50:21;-1.00;1.00
7684;DHT22;3884;48.616;12.872;2024-01-16T00:52:49;-1.00;1.00
7684;DHT22;3884;48.616;12.872;2024-01-16T00:55:16;-1.00;1.00
7684;DHT22;3884;48.616;12.872;2024-01-16T00:57:45;-1.10;1.00
7684;DHT22;3884;48.616;12.872;2024-01-16T01:00:12;-1.00;1.00
7684;DHT22;3884;48.616;12.872;2024-01-16T01:02:39;-1.00;1.00
7684;DHT22;3884;48.616;12.872;2024-01-16T01:05:07;-1.00;1.00
7684;DHT22;3884;48.616;12.872;2024-01-16T01:07:34;-1.00;1.00
7684;DHT22;3884;48.616;12.872;2024-01-16T01:10:01;-1.00;1.00
7684;DHT22;3884;48.616;12.872;2024-01-16T01:12:28;-1.00;1.00
7684;DHT22;3884;48.616;12.872;2024-01-16T01:14:56;-1.00;1.00
7684;DHT22;3884;48.616;12.872;2024-01-16T01:17:23;-1.00;1.00
7684;DHT22;3884;48.616;12.872;2024-01-16T01:19:50;-1.10;1.00
7684;DHT22;3884;48.616;12.872;2024-01-16T01:22:17;-1.00;1.00
7684;DHT22;3884;48.616;12.872;2024-01-16T01:24:44;-1.00;1.00
7684;DHT22;3884;48.616;12.872;2024-01-16T01:27:10;-1.00;1.00
7684;DHT22;3884;48.616;12.872;2024-01-16T01:29:37;-1.00;99.90
7684;DHT22;3884;48.616;12.872;2024-01-16T01:32:06;-1.00;99.90
7684;DHT22;3884;48.616;12.872;2024-01-16T01:34:33;-1.00;99.90
7684;DHT22;3884;48.616;12.872;2024-01-16T01:37:00;-1.00;99.90
7684;DHT22;3884;48.616;12.872;2024-01-16T01:39:27;-1.00;99.90
7684;DHT22;3884;48.616;12.872;2024-01-16T01:41:54;-1.00;99.90
7684;DHT22;3884;48.616;12.872;2024-01-16T01:44:21;-1.00;99.90
7684;DHT22;3884;48.616;12.872;2024-01-16T01:46:50;-0.90;99.90
7684;DHT22;3884;48.616;12.872;2024-01-16T01:49:19;-0.90;99.90
7684;DHT22;3884;48.616;12.872;2024-01-16T01:51:46;-0.90;99.90
7684;DHT22;3884;48.616;12.872;2024-01-16T01:54:13;-0.90;99.90
7684;DHT22;3884;48.616;12.872;2024-01-16T01:56:42;-0.90;99.90
7684;DHT22;3884;48.616;12.872;2024-01-16T01:59:11;-1.00;99.90
7684;DHT22;3884;48.616;12.872;2024-01-16T02:01:40;-1.00;99.90
7684;DHT22;3884;48.616;12.872;2024-01-16T02:04:08;-1.00;99.90
7684;DHT22;3884;48.616;12.872;2024-01-16T02:06:38;-1.00;99.90
7684;DHT22;3884;48.616;12.872;2024-01-16T02:09:07;-1.00;99.90
7684;DHT22;3884;48.616;12.872;2024-01-16T02:11:34;-1.10;99.90
7684;DHT22;3884;48.616;12.872;2024-01-16T02:14:01;-1.10;99.90
7684;DHT22;3884;48.616;12.872;2024-01-16T02:16:36;-1.10;99.90
7684;DHT22;3884;48.616;12.872;2024-01-16T02:19:04;-1.10;99.90
7684;DHT22;3884;48.616;12.872;2024-01-16T02:21:35;-1.00;99.90
7684;DHT22;3884;48.616;12.872;2024-01-16T02:24:06;-1.10;99.90
7684;DHT22;3884;48.616;12.872;2024-01-16T02:26:34;-1.10;99.90
7684;DHT22;3884;48.616;12.872;2024-01-16T02:29:01;-1.00;99.90
7684;DHT22;3884;48.616;12.872;2024-01-16T02:31:29;-1.00;99.90
7684;DHT22;3884;48.616;12.872;2024-01-16T02:33:56;-1.00;99.90
7684;DHT22;3884;48.616;12.872;2024-01-16T02:36:23;-1.00;99.90
7684;DHT22;3884;48.616;12.872;2024-01-16T02:38:50;-0.90;99.90
7684;DHT22;3884;48.616;12.872;2024-01-16T02:41:19;-1.00;99.90
7684;DHT22;3884;48.616;12.872;2024-01-16T02:43:46;-1.00;99.90
7684;DHT22;3884;48.616;12.872;2024-01-16T02:46:13;-1.00;99.90
7684;DHT22;3884;48.616;12.872;2024-01-16T02:48:40;-1.00;99.90
7684;DHT22;3884;48.616;12.872;2024-01-16T02:51:08;-1.00;99.90
7684;DHT22;3884;48.616;12.872;2024-01-16T02:53:35;-1.00;99.90
7684;DHT22;3884;48.616;12.872;2024-01-16T02:56:02;-1.00;99.90
7684;DHT22;3884;48.616;12.872;2024-01-16T02:58:31;-1.00;99.90
7684;DHT22;3884;48.616;12.872;2024-01-16T03:00:58;-1.00;99.90
7684;DHT22;3884;48.616;12.872;2024-01-16T03:03:24;-1.00;99.90
7684;DHT22;3884;48.616;12.872;2024-01-16T03:05:51;-1.00;99.90
7684;DHT22;3884;48.616;12.872;2024-01-16T03:08:18;-1.10;99.90
7684;DHT22;3884;48.616;12.872;2024-01-16T03:10:45;-1.00;99.90
7684;DHT22;3884;48.616;12.872;2024-01-16T03:13:12;-1.00;99.90
7684;DHT22;3884;48.616;12.872;2024-01-16T03:15:40;-1.00;99.90
7684;DHT22;3884;48.616;12.872;2024-01-16T03:18:07;-1.00;99.90
7684;DHT22;3884;48.616;12.872;2024-01-16T03:20:34;-1.00;99.90
7684;DHT22;3884;48.616;12.872;2024-01-16T03:23:01;-1.00;99.90
7684;DHT22;3884;48.616;12.872;2024-01-16T03:25:28;-1.10;99.90
7684;DHT22;3884;48.616;12.872;2024-01-16T03:27:54;-1.10;99.90
7684;DHT22;3884;48.616;12.872;2024-01-16T03:30:21;-1.20;99.90
7684;DHT22;3884;48.616;12.872;2024-01-16T03:32:49;-1.10;99.90
7684;DHT22;3884;48.616;12.872;2024-01-16T03:35:16;-1.10;99.90
7684;DHT22;3884;48.616;12.872;2024-01-16T03:37:43;-1.10;99.90
7684;DHT22;3884;48.616;12.872;2024-01-16T03:40:11;-1.20;99.90
7684;DHT22;3884;48.616;12.872;2024-01-16T03:42:38;-1.20;99.90
7684;DHT22;3884;48.616;12.872;2024-01-16T03:45:06;-1.30;99.90
7684;DHT22;3884;48.616;12.872;2024-01-16T03:47:33;-1.40;99.90
7684;DHT22;3884;48.616;12.872;2024-01-16T03:50:01;-1.40;99.90
7684;DHT22;3884;48.616;12.872;2024-01-16T03:52:28;-1.50;99.90
7684;DHT22;3884;48.616;12.872;2024-01-16T03:54:55;-1.50;99.90
7684;DHT22;3884;48.616;12.872;2024-01-16T03:57:22;-1.50;99.90
7684;DHT22;3884;48.616;12.872;2024-01-16T03:59:50;-1.60;99.90
7684;DHT22;3884;48.616;12.872;2024-01-16T04:02:17;-1.70;99.90
7684;DHT22;3884;48.616;12.872;2024-01-16T04:04:44;-1.70;99.90
7684;DHT22;3884;48.616;12.872;2024-01-16T04:07:12;-1.70;99.90
7684;DHT22;3884;48.616;12.872;2024-01-16T04:09:38;-1.70;99.90
7684;DHT22;3884;48.616;12.872;2024-01-16T04:12:06;-1.70;99.90
7684;DHT22;3884;48.616;12.872;2024-01-16T04:14:33;-1.80;99.90
7684;DHT22;3884;48.616;12.872;2024-01-16T04:17:01;-1.90;99.90
7684;DHT22;3884;48.616;12.872;2024-01-16T04:19:28;-1.90;99.90
7684;DHT22;3884;48.616;12.872;2024-01-16T04:21:59;-1.90;99.90
7684;DHT22;3884;48.616;12.872;2024-01-16T04:24:28;-1.90;99.90
7684;DHT22;3884;48.616;12.872;2024-01-16T04:26:54;-1.80;99.90
7684;DHT22;3884;48.616;12.872;2024-01-16T04:29:21;-1.80;99.90
7684;DHT22;3884;48.616;12.872;2024-01-16T04:31:48;-1.90;99.90
7684;DHT22;3884;48.616;12.872;2024-01-16T04:34:15;-1.90;99.90
7684;DHT22;3884;48.616;12.872;2024-01-16T04:36:42;-1.80;99.90
7684;DHT22;3884;48.616;12.872;2024-01-16T04:39:09;-1.90;99.90
7684;DHT22;3884;48.616;12.872;2024-01-16T04:41:37;-1.90;99.90
7684;DHT22;3884;48.616;12.872;2024-01-16T04:44:04;-1.80;99.90
7684;DHT22;3884;48.616;12.872;2024-01-16T04:46:31;-1.70;99.90
7684;DHT22;3884;48.616;12.872;2024-01-16T04:48:58;-1.70;99.90
7684;DHT22;3884;48.616;12.872;2024-01-16T04:51:25;-1.60;99.90
7684;DHT22;3884;48.616;12.872;2024-01-16T04:53:51;-1.60;99.90
7684;DHT22;3884;48.616;12.872;2024-01-16T04:56:19;-1.60;99.90
7684;DHT22;3884;48.616;12.872;2024-01-16T04:58:47;-1.60;99.90
7684;DHT22;3884;48.616;12.872;2024-01-16T05:01:15;-1.60;99.90
7684;DHT22;3884;48.616;12.872;2024-01-16T05:03:42;-1.60;99.90
7684;DHT22;3884;48.616;12.872;2024-01-16T05:06:12;-1.60;99.90
7684;DHT22;3884;48.616;12.872;2024-01-16T05:08:40;-1.60;99.90
7684;DHT22;3884;48.616;12.872;2024-01-16T05:11:07;-1.60;99.90
7684;DHT22;3884;48.616;12.872;2024-01-16T05:13:34;-1.60;99.90
7684;DHT22;3884;48.616;12.872;2024-01-16T05:16:03;-1.60;99.90
7684;DHT22;3884;48.616;12.872;2024-01-16T05:18:30;-1.50;99.90
7684;DHT22;3884;48.616;12.872;2024-01-16T05:20:58;-1.60;99.90
7684;DHT22;3884;48.616;12.872;2024-01-16T05:23:25;-1.60;99.90
7684;DHT22;3884;48.616;12.872;2024-01-16T05:25:51;-1.60;99.90
7684;DHT22;3884;48.616;12.872;2024-01-16T05:28:18;-1.60;99.90
7684;DHT22;3884;48.616;12.872;2024-01-16T05:30:45;-1.60;99.90
7684;DHT22;3884;48.616;12.872;2024-01-16T05:33:13;-1.60;99.90
7684;DHT22;3884;48.616;12.872;2024-01-16T05:35:40;-1.60;99.90
7684;DHT22;3884;48.616;12.872;2024-01-16T05:38:07;-1.60;99.90
7684;DHT22;3884;48.616;12.872;2024-01-16T05:40:34;-1.60;99.90
7684;DHT22;3884;48.616;12.872;2024-01-16T05:43:02;-1.60;99.90
7684;DHT22;3884;48.616;12.872;2024-01-16T05:45:29;-1.60;99.90
7684;DHT22;3884;48.616;12.872;2024-01-16T05:47:56;-1.60;99.90
7684;DHT22;3884;48.616;12.872;2024-01-16T05:50:24;-1.60;99.90
7684;DHT22;3884;48.616;12.872;2024-01-16T05:52:52;-1.60;99.90
7684;DHT22;3884;48.616;12.872;2024-01-16T05:55:19;-1.60;99.90
7684;DHT22;3884;48.616;12.872;2024-01-16T05:57:47;-1.60;99.90
7684;DHT22;3884;48.616;12.872;2024-01-16T06:00:14;-1.60;99.90
7684;DHT22;3884;48.616;12.872;2024-01-16T06:02:43;-1.60;99.90
7684;DHT22;3884;48.616;12.872;2024-01-16T06:05:10;-1.60;99.90
7684;DHT22;3884;48.616;12.872;2024-01-16T06:07:38;-1.50;99.90
7684;DHT22;3884;48.616;12.872;2024-01-16T06:10:06;-1.50;99.90
7684;DHT22;3884;48.616;12.872;2024-01-16T06:12:34;-1.50;99.90
7684;DHT22;3884;48.616;12.872;2024-01-16T06:15:01;-1.40;99.90
7684;DHT22;3884;48.616;12.872;2024-01-16T06:17:28;-1.40;99.90
7684;DHT22;3884;48.616;12.872;2024-01-16T06:19:55;-1.40;99.90
7684;DHT22;3884;48.616;12.872;2024-01-16T06:22:22;-1.40;99.90
7684;DHT22;3884;48.616;12.872;2024-01-16T06:24:50;-1.40;99.90
7684;DHT22;3884;48.616;12.872;2024-01-16T06:27:17;-1.40;99.90
7684;DHT22;3884;48.616;12.872;2024-01-16T06:29:44;-1.40;99.90
7684;DHT22;3884;48.616;12.872;2024-01-16T06:32:11;-1.40;99.90
7684;DHT22;3884;48.616;12.872;2024-01-16T06:34:38;-1.40;99.90
7684;DHT22;3884;48.616;12.872;2024-01-16T06:37:05;-1.40;99.90
7684;DHT22;3884;48.616;12.872;2024-01-16T06:39:33;-1.30;99.90
7684;DHT22;3884;48.616;12.872;2024-01-16T06:42:02;-1.40;99.90
7684;DHT22;3884;48.616;12.872;2024-01-16T06:44:30;-1.20;99.90
7684;DHT22;3884;48.616;12.872;2024-01-16T06:46:57;-1.30;99.90
7684;DHT22;3884;48.616;12.872;2024-01-16T06:49:24;-1.30;99.90
7684;DHT22;3884;48.616;12.872;2024-01-16T06:51:51;-1.30;99.90
7684;DHT22;3884;48.616;12.872;2024-01-16T06:54:17;-1.30;99.90
7684;DHT22;3884;48.616;12.872;2024-01-16T06:56:45;-1.30;99.90
7684;DHT22;3884;48.616;12.872;2024-01-16T06:59:15;-1.30;99.90
7684;DHT22;3884;48.616;12.872;2024-01-16T07:01:45;-1.30;99.90
7684;DHT22;3884;48.616;12.872;2024-01-16T07:04:12;-1.30;99.90
7684;DHT22;3884;48.616;12.872;2024-01-16T07:06:39;-1.30;99.90
7684;DHT22;3884;48.616;12.872;2024-01-16T07:09:06;-1.40;99.90
7684;DHT22;3884;48.616;12.872;2024-01-16T07:11:36;-1.40;99.90
7684;DHT22;3884;48.616;12.872;2024-01-16T07:14:03;-1.30;99.90
7684;DHT22;3884;48.616;12.872;2024-01-16T07:16:31;-1.40;99.90
7684;DHT22;3884;48.616;12.872;2024-01-16T07:18:58;-1.30;99.90
7684;DHT22;3884;48.616;12.872;2024-01-16T07:21:25;-1.30;99.90
7684;DHT22;3884;48.616;12.872;2024-01-16T07:23:53;-1.30;99.90
7684;DHT22;3884;48.616;12.872;2024-01-16T07:26:22;-1.30;99.90
7684;DHT22;3884;48.616;12.872;2024-01-16T07:28:49;-1.30;99.90
7684;DHT22;3884;48.616;12.872;2024-01-16T07:31:16;-1.20;99.90
7684;DHT22;3884;48.616;12.872;2024-01-16T07:33:44;-1.20;99.90
7684;DHT22;3884;48.616;12.872;2024-01-16T07:36:11;-1.20;99.90
7684;DHT22;3884;48.616;12.872;2024-01-16T07:38:38;-1.20;99.90
7684;DHT22;3884;48.616;12.872;2024-01-16T07:41:05;-1.20;99.90
7684;DHT22;3884;48.616;12.872;2024-01-16T07:43:32;-1.20;99.90
7684;DHT22;3884;48.616;12.872;2024-01-16T07:46:00;-1.20;99.90
7684;DHT22;3884;48.616;12.872;2024-01-16T07:48:28;-1.20;99.90
7684;DHT22;3884;48.616;12.872;2024-01-16T07:50:56;-1.20;99.90
7684;DHT22;3884;48.616;12.872;2024-01-16T07:53:23;-1.20;99.90
7684;DHT22;3884;48.616;12.872;2024-01-16T07:55:53;-1.10;99.90
7684;DHT22;3884;48.616;12.872;2024-01-16T07:58:20;-1.10;99.90
7684;DHT22;3884;48.616;12.872;2024-01-16T08:00:47;-1.10;99.90
7684;DHT22;3884;48.616;12.872;2024-01-16T08:03:14;-1.00;99.90
7684;DHT22;3884;48.616;12.872;2024-01-16T08:05:41;-1.00;99.90
7684;DHT22;3884;48.616;12.872;2024-01-16T08:08:09;-1.00;99.90
7684;DHT22;3884;48.616;12.872;2024-01-16T08:10:37;-1.10;99.90
7684;DHT22;3884;48.616;12.872;2024-01-16T08:13:04;-1.00;99.90
7684;DHT22;3884;48.616;12.872;2024-01-16T08:15:31;-1.10;99.90
7684;DHT22;3884;48.616;12.872;2024-01-16T08:17:58;-1.10;99.90
7684;DHT22;3884;48.616;12.872;2024-01-16T08:20:25;-1.10;99.90
7684;DHT22;3884;48.616;12.872;2024-01-16T08:22:52;-1.10;99.90
7684;DHT22;3884;48.616;12.872;2024-01-16T08:25:21;-1.10;99.90
7684;DHT22;3884;48.616;12.872;2024-01-16T08:27:48;-1.10;99.90
7684;DHT22;3884;48.616;12.872;2024-01-16T08:30:15;-1.10;99.90
7684;DHT22;3884;48.616;12.872;2024-01-16T08:32:42;-1.00;99.90
7684;DHT22;3884;48.616;12.872;2024-01-16T08:35:09;-1.00;99.90
7684;DHT22;3884;48.616;12.872;2024-01-16T08:37:36;-1.00;99.90
7684;DHT22;3884;48.616;12.872;2024-01-16T08:40:03;-1.00;99.90
7684;DHT22;3884;48.616;12.872;2024-01-16T08:42:31;-0.90;99.90
7684;DHT22;3884;48.616;12.872;2024-01-16T08:44:58;-0.90;99.90
7684;DHT22;3884;48.616;12.872;2024-01-16T08:47:25;-0.90;99.90
7684;DHT22;3884;48.616;12.872;2024-01-16T08:49:52;-0.90;99.90
7684;DHT22;3884;48.616;12.872;2024-01-16T08:52:19;-0.90;99.90
7684;DHT22;3884;48.616;12.872;2024-01-16T08:54:46;-0.90;99.90
7684;DHT22;3884;48.616;12.872;2024-01-16T08:57:13;-0.90;99.90
7684;DHT22;3884;48.616;12.872;2024-01-16T08:59:42;-0.70;99.90
7684;DHT22;3884;48.616;12.872;2024-01-16T09:02:08;-0.80;99.90
7684;DHT22;3884;48.616;12.872;2024-01-16T09:04:35;-0.70;99.90
7684;DHT22;3884;48.616;12.872;2024-01-16T09:07:03;-0.70;99.90
7684;DHT22;3884;48.616;12.872;2024-01-16T09:09:31;-0.70;99.90
7684;DHT22;3884;48.616;12.872;2024-01-16T09:11:57;-0.70;99.90
7684;DHT22;3884;48.616;12.872;2024-01-16T09:14:24;-0.60;99.90
7684;DHT22;3884;48.616;12.872;2024-01-16T09:16:53;-0.60;99.90
7684;DHT22;3884;48.616;12.872;2024-01-16T09:19:20;-0.70;99.90
7684;DHT22;3884;48.616;12.872;2024-01-16T09:21:47;-0.70;99.90
7684;DHT22;3884;48.616;12.872;2024-01-16T09:24:14;-0.80;99.90
7684;DHT22;3884;48.616;12.872;2024-01-16T09:26:41;-0.70;99.90
7684;DHT22;3884;48.616;12.872;2024-01-16T09:29:09;-0.60;99.90
7684;DHT22;3884;48.616;12.872;2024-01-16T09:31:36;-0.60;99.90
7684;DHT22;3884;48.616;12.872;2024-01-16T09:34:05;-0.50;99.90
7684;DHT22;3884;48.616;12.872;2024-01-16T09:36:32;-0.40;99.90
7684;DHT22;3884;48.616;12.872;2024-01-16T09:39:01;-0.50;99.90
7684;DHT22;3884;48.616;12.872;2024-01-16T09:41:28;-0.50;99.90
7684;DHT22;3884;48.616;12.872;2024-01-16T09:43:58;-0.60;99.90
7684;DHT22;3884;48.616;12.872;2024-01-16T09:46:26;-0.60;99.90
7684;DHT22;3884;48.616;12.872;2024-01-16T09:48:54;-0.50;99.90
7684;DHT22;3884;48.616;12.872;2024-01-16T09:51:23;-0.50;99.90
7684;DHT22;3884;48.616;12.872;2024-01-16T09:53:50;-0.50;99.90
7684;DHT22;3884;48.616;12.872;2024-01-16T09:56:21;-0.50;99.90
7684;DHT22;3884;48.616;12.872;2024-01-16T09:58:50;-0.40;99.90
7684;DHT22;3884;48.616;12.872;2024-01-16T10:01:19;-0.30;99.90
7684;DHT22;3884;48.616;12.872;2024-01-16T10:03:47;-0.30;99.90
7684;DHT22;3884;48.616;12.872;2024-01-16T10:06:15;-0.30;99.90
7684;DHT22;3884;48.616;12.872;2024-01-16T10:08:46;-0.20;99.90
7684;DHT22;3884;48.616;12.872;2024-01-16T10:11:12;-0.20;99.90
7684;DHT22;3884;48.616;12.872;2024-01-16T10:13:39;-0.20;99.90
7684;DHT22;3884;48.616;12.872;2024-01-16T10:16:06;-0.20;99.90
7684;DHT22;3884;48.616;12.872;2024-01-16T10:18:34;-0.20;99.90
7684;DHT22;3884;48.616;12.872;2024-01-16T10:21:03;-0.10;99.90
7684;DHT22;3884;48.616;12.872;2024-01-16T10:23:33;-0.10;99.90
7684;DHT22;3884;48.616;12.872;2024-01-16T10:26:08;0.00;99.90
7684;DHT22;3884;48.616;12.872;2024-01-16T10:28:35;0.00;99.90
7684;DHT22;3884;48.616;12.872;2024-01-16T10:31:03;0.00;99.90
7684;DHT22;3884;48.616;12.872;2024-01-16T10:33:30;0.00;99.90
7684;DHT22;3884;48.616;12.872;2024-01-16T10:36:11;0.10;99.90
7684;DHT22;3884;48.616;12.872;2024-01-16T10:38:39;0.10;99.90
7684;DHT22;3884;48.616;12.872;2024-01-16T10:41:09;0.00;99.90
7684;DHT22;3884;48.616;12.872;2024-01-16T10:43:36;0.00;99.90
7684;DHT22;3884;48.616;12.872;2024-01-16T10:46:10;0.00;99.90
7684;DHT22;3884;48.616;12.872;2024-01-16T10:48:39;-0.10;99.90
7684;DHT22;3884;48.616;12.872;2024-01-16T10:51:07;-0.10;99.90
7684;DHT22;3884;48.616;12.872;2024-01-16T10:53:35;-0.10;99.90
7684;DHT22;3884;48.616;12.872;2024-01-16T10:56:05;-0.10;99.90
7684;DHT22;3884;48.616;12.872;2024-01-16T10:58:40;-0.10;99.90
7684;DHT22;3884;48.616;12.872;2024-01-16T11:01:10;0.00;99.90
7684;DHT22;3884;48.616;12.872;2024-01-16T11:03:40;0.00;99.90
7684;DHT22;3884;48.616;12.872;2024-01-16T11:06:15;0.10;99.90
7684;DHT22;3884;48.616;12.872;2024-01-16T11:08:43;0.10;99.90
7684;DHT22;3884;48.616;12.872;2024-01-16T11:11:13;0.10;99.90
7684;DHT22;3884;48.616;12.872;2024-01-16T11:13:42;0.30;99.90
7684;DHT22;3884;48.616;12.872;2024-01-16T11:16:10;0.30;99.90
7684;DHT22;3884;48.616;12.872;2024-01-16T11:18:37;0.30;99.90
7684;DHT22;3884;48.616;12.872;2024-01-16T11:21:06;0.40;99.90
7684;DHT22;3884;48.616;12.872;2024-01-16T11:23:34;0.40;99.90
7684;DHT22;3884;48.616;12.872;2024-01-16T11:26:24;0.40;99.90
7684;DHT22;3884;48.616;12.872;2024-01-16T11:28:53;0.40;99.90
7684;DHT22;3884;48.616;12.872;2024-01-16T11:31:29;0.60;99.90
7684;DHT22;3884;48.616;12.872;2024-01-16T11:33:57;0.70;99.90
7684;DHT22;3884;48.616;12.872;2024-01-16T11:36:49;0.70;99.90
7684;DHT22;3884;48.616;12.872;2024-01-16T11:39:18;0.80;99.90
7684;DHT22;3884;48.616;12.872;2024-01-16T11:41:58;0.80;99.90
7684;DHT22;3884;48.616;12.872;2024-01-16T11:44:57;0.80;99.90
7684;DHT22;3884;48.616;12.872;2024-01-16T11:47:38;0.80;99.90
7684;DHT22;3884;48.616;12.872;2024-01-16T11:50:09;0.80;99.90
7684;DHT22;3884;48.616;12.872;2024-01-16T11:52:41;0.80;99.90
7684;DHT22;3884;48.616;12.872;2024-01-16T11:55:25;0.80;99.90
7684;DHT22;3884;48.616;12.872;2024-01-16T11:58:13;0.70;99.90
7684;DHT22;3884;48.616;12.872;2024-01-16T12:00:49;0.60;99.90
7684;DHT22;3884;48.616;12.872;2024-01-16T12:03:19;0.70;99.90
7684;DHT22;3884;48.616;12.872;2024-01-16T12:05:55;0.70;99.90
7684;DHT22;3884;48.616;12.872;2024-01-16T12:08:22;0.80;99.90
7684;DHT22;3884;48.616;12.872;2024-01-16T12:10:49;0.80;99.90
7684;DHT22;3884;48.616;12.872;2024-01-16T12:13:16;0.70;99.90
7684;DHT22;3884;48.616;12.872;2024-01-16T12:15:43;0.80;99.90
7684;DHT22;3884;48.616;12.872;2024-01-16T12:18:18;0.80;99.90
7684;DHT22;3884;48.616;12.872;2024-01-16T12:20:44;0.80;99.90
7684;DHT22;3884;48.616;12.872;2024-01-16T12:23:11;0.80;99.90
7684;DHT22;3884;48.616;12.872;2024-01-16T12:25:40;0.90;99.90
7684;DHT22;3884;48.616;12.872;2024-01-16T12:28:07;0.80;99.90
7684;DHT22;3884;48.616;12.872;2024-01-16T12:30:37;0.70;99.90
7684;DHT22;3884;48.616;12.872;2024-01-16T12:33:05;0.80;99.90
7684;DHT22;3884;48.616;12.872;2024-01-16T12:35:35;0.90;99.90
7684;DHT22;3884;48.616;12.872;2024-01-16T12:38:04;0.90;99.90
7684;DHT22;3884;48.616;12.872;2024-01-16T12:40:32;0.80;99.90
7684;DHT22;3884;48.616;12.872;2024-01-16T12:43:00;0.80;99.90
7684;DHT22;3884;48.616;12.872;2024-01-16T12:45:27;0.80;99.90
7684;DHT22;3884;48.616;12.872;2024-01-16T12:47:55;0.80;99.90
7684;DHT22;3884;48.616;12.872;2024-01-16T12:50:25;0.90;99.90
7684;DHT22;3884;48.616;12.872;2024-01-16T12:53:02;0.80;99.90
7684;DHT22;3884;48.616;12.872;2024-01-16T12:55:30;0.80;99.90
7684;DHT22;3884;48.616;12.872;2024-01-16T12:58:14;0.80;99.90
7684;DHT22;3884;48.616;12.872;2024-01-16T13:00:42;0.70;99.90
7684;DHT22;3884;48.616;12.872;2024-01-16T13:03:15;0.70;99.90
7684;DHT22;3884;48.616;12.872;2024-01-16T13:05:43;0.70;99.90
7684;DHT22;3884;48.616;12.872;2024-01-16T13:08:17;0.80;99.90
7684;DHT22;3884;48.616;12.872;2024-01-16T13:10:46;0.70;99.90
7684;DHT22;3884;48.616;12.872;2024-01-16T13:13:14;0.70;99.90
7684;DHT22;3884;48.616;12.872;2024-01-16T13:15:43;0.60;99.90
7684;DHT22;3884;48.616;12.872;2024-01-16T13:18:19;0.70;99.90
7684;DHT22;3884;48.616;12.872;2024-01-16T13:20:49;0.60;99.90
7684;DHT22;3884;48.616;12.872;2024-01-16T13:23:18;0.70;99.90
7684;DHT22;3884;48.616;12.872;2024-01-16T13:25:46;0.70;99.90
7684;DHT22;3884;48.616;12.872;2024-01-16T13:28:14;0.60;99.90
7684;DHT22;3884;48.616;12.872;2024-01-16T13:30:41;0.60;99.90
7684;DHT22;3884;48.616;12.872;2024-01-16T13:33:08;0.50;99.90
7684;DHT22;3884;48.616;12.872;2024-01-16T13:35:37;0.50;99.90
7684;DHT22;3884;48.616;12.872;2024-01-16T13:38:05;0.60;99.90
7684;DHT22;3884;48.616;12.872;2024-01-16T13:40:34;0.70;99.90
7684;DHT22;3884;48.616;12.872;2024-01-16T13:43:01;0.70;99.90
7684;DHT22;3884;48.616;12.872;2024-01-16T13:45:28;0.80;99.90
7684;DHT22;3884;48.616;12.872;2024-01-16T13:47:55;0.80;99.90
7684;DHT22;3884;48.616;12.872;2024-01-16T13:50:23;1.00;99.90
7684;DHT22;3884;48.616;12.872;2024-01-16T13:52:50;0.80;99.90
7684;DHT22;3884;48.616;12.872;2024-01-16T13:55:18;0.70;99.90
7684;DHT22;3884;48.616;12.872;2024-01-16T13:57:46;0.60;99.90
7684;DHT22;3884;48.616;12.872;2024-01-16T14:00:14;0.70;99.90
7684;DHT22;3884;48.616;12.872;2024-01-16T14:02:43;0.70;99.90
7684;DHT22;3884;48.616;12.872;2024-01-16T14:05:11;0.70;99.90
7684;DHT22;3884;48.616;12.872;2024-01-16T14:07:41;0.70;99.90
7684;DHT22;3884;48.616;12.872;2024-01-16T14:10:08;0.70;99.90
7684;DHT22;3884;48.616;12.872;2024-01-16T14:12:37;0.70;99.90
7684;DHT22;3884;48.616;12.872;2024-01-16T14:15:08;0.60;99.90
7684;DHT22;3884;48.616;12.872;2024-01-16T14:17:41;0.50;99.90
7684;DHT22;3884;48.616;12.872;2024-01-16T14:20:10;0.50;99.90
7684;DHT22;3884;48.616;12.872;2024-01-16T14:22:38;0.50;99.90
7684;DHT22;3884;48.616;12.872;2024-01-16T14:25:06;0.50;99.90
7684;DHT22;3884;48.616;12.872;2024-01-16T14:27:37;0.50;99.90
7684;DHT22;3884;48.616;12.872;2024-01-16T14:32:36;0.40;99.90
7684;DHT22;3884;48.616;12.872;2024-01-16T14:35:05;0.30;99.90
7684;DHT22;3884;48.616;12.872;2024-01-16T14:37:33;0.10;99.90
7684;DHT22;3884;48.616;12.872;2024-01-16T14:40:02;0.00;99.90
7684;DHT22;3884;48.616;12.872;2024-01-16T14:42:32;0.00;99.90
7684;DHT22;3884;48.616;12.872;2024-01-16T14:45:00;0.00;99.90
7684;DHT22;3884;48.616;12.872;2024-01-16T14:47:29;0.00;99.90
7684;DHT22;3884;48.616;12.872;2024-01-16T14:49:55;-0.10;99.90
7684;DHT22;3884;48.616;12.872;2024-01-16T14:52:23;-0.10;99.90
7684;DHT22;3884;48.616;12.872;2024-01-16T14:54:51;-0.20;99.90
7684;DHT22;3884;48.616;12.872;2024-01-16T14:57:19;-0.20;99.90
7684;DHT22;3884;48.616;12.872;2024-01-16T14:59:46;-0.20;99.90
7684;DHT22;3884;48.616;12.872;2024-01-16T15:02:13;-0.20;99.90
7684;DHT22;3884;48.616;12.872;2024-01-16T15:04:43;-0.30;99.90
7684;DHT22;3884;48.616;12.872;2024-01-16T15:07:10;-0.30;99.90
7684;DHT22;3884;48.616;12.872;2024-01-16T15:09:37;-0.40;99.90
7684;DHT22;3884;48.616;12.872;2024-01-16T15:12:05;-0.40;99.90
7684;DHT22;3884;48.616;12.872;2024-01-16T15:14:33;-0.50;99.90
7684;DHT22;3884;48.616;12.872;2024-01-16T15:17:00;-0.50;99.90
7684;DHT22;3884;48.616;12.872;2024-01-16T15:19:27;-0.60;99.90
7684;DHT22;3884;48.616;12.872;2024-01-16T15:21:56;-0.60;99.90
7684;DHT22;3884;48.616;12.872;2024-01-16T15:24:24;-0.60;99.90
7684;DHT22;3884;48.616;12.872;2024-01-16T15:26:54;-0.70;99.90
7684;DHT22;3884;48.616;12.872;2024-01-16T15:29:22;-0.60;99.90
7684;DHT22;3884;48.616;12.872;2024-01-16T15:31:48;-0.70;99.90
7684;DHT22;3884;48.616;12.872;2024-01-16T15:34:15;-0.70;99.90
7684;DHT22;3884;48.616;12.872;2024-01-16T15:36:42;-0.70;99.90
7684;DHT22;3884;48.616;12.872;2024-01-16T15:39:11;-0.70;1.00
7684;DHT22;3884;48.616;12.872;2024-01-16T15:41:41;-0.70;99.90
7684;DHT22;3884;48.616;12.872;2024-01-16T15:44:09;-0.70;99.90
7684;DHT22;3884;48.616;12.872;2024-01-16T15:46:53;-0.80;99.90
7684;DHT22;3884;48.616;12.872;2024-01-16T15:49:20;-0.90;1.00
7684;DHT22;3884;48.616;12.872;2024-01-16T15:51:47;-0.90;1.00
7684;DHT22;3884;48.616;12.872;2024-01-16T15:54:16;-0.90;1.00
7684;DHT22;3884;48.616;12.872;2024-01-16T15:56:43;-0.90;1.00
7684;DHT22;3884;48.616;12.872;2024-01-16T15:59:10;-0.80;1.00
7684;DHT22;3884;48.616;12.872;2024-01-16T16:01:37;-0.80;1.00